Time;durP1;ratioP1;P1;durP2;ratioP2;P2;SDS_P1;SDS_P2;PMS_P1;PMS_P2;Temp;Humidity;BMP_temperature;BMP_pressure;BME280_temperature;BME280_humidity;BME280_pressure;Samples;Min_cycle;Max_cycle;Signal;HPM_P1;HPM_P2
2023/01/20 00:00:36;;;;;;;1.77;0.80;;;20.50;39.40;;;;;;5043013;28;86222;-62
2023/01/20 00:03:04;;;;;;;1.00;0.80;;;20.50;39.40;;;;;;5041882;28;88037;-62
2023/01/20 00:05:32;;;;;;;1.10;1.00;;;20.50;39.40;;;;;;5041617;27;88995;-62
2023/01/20 00:08:02;;;;;;;1.20;0.90;;;20.50;39.40;;;;;;5042068;27;89880;-62
2023/01/20 00:10:30;;;;;;;1.40;1.00;;;20.40;40.00;;;;;;5043600;27;87512;-63
2023/01/20 00:12:58;;;;;;;3.00;1.03;;;20.40;39.40;;;;;;5042054;27;88368;-62
2023/01/20 00:15:26;;;;;;;0.50;0.50;;;20.40;39.40;;;;;;5051271;27;87654;-62
2023/01/20 00:17:54;;;;;;;2.30;1.07;;;20.30;39.30;;;;;;5048576;27;88448;-62
2023/01/20 00:20:22;;;;;;;0.90;0.90;;;20.40;39.40;;;;;;5049635;27;88571;-62
2023/01/20 00:22:50;;;;;;;1.97;0.70;;;20.30;39.30;;;;;;5041486;27;88136;-62
2023/01/20 00:25:19;;;;;;;2.00;1.10;;;20.30;39.30;;;;;;5041091;27;86596;-62
2023/01/20 00:27:47;;;;;;;1.17;0.87;;;20.30;39.30;;;;;;5042240;27;86925;-62
2023/01/20 00:30:16;;;;;;;1.67;1.13;;;20.30;39.30;;;;;;5033397;27;87193;-62
2023/01/20 00:32:44;;;;;;;2.20;1.17;;;20.30;39.30;;;;;;5055974;27;89991;-62
2023/01/20 00:35:12;;;;;;;1.83;0.70;;;20.30;39.30;;;;;;5045334;27;88581;-62
2023/01/20 00:37:42;;;;;;;1.20;1.10;;;20.30;39.30;;;;;;5050485;27;87266;-62
2023/01/20 00:40:11;;;;;;;0.80;0.70;;;20.20;39.30;;;;;;5043776;27;87045;-62
2023/01/20 00:42:40;;;;;;;1.10;0.93;;;20.20;39.30;;;;;;5042164;27;89106;-63
2023/01/20 00:45:09;;;;;;;1.10;0.83;;;20.20;39.30;;;;;;5044905;27;88678;-63
2023/01/20 00:47:37;;;;;;;3.17;1.30;;;20.20;39.30;;;;;;5054392;27;87145;-62
2023/01/20 00:50:06;;;;;;;2.37;1.23;;;20.20;39.30;;;;;;5042811;27;86331;-62
2023/01/20 00:52:34;;;;;;;1.47;1.13;;;20.20;39.30;;;;;;5042615;27;88335;-63
2023/01/20 00:55:02;;;;;;;0.70;0.70;;;20.10;39.20;;;;;;5042342;27;90058;-63
2023/01/20 00:57:29;;;;;;;2.27;1.63;;;20.10;39.20;;;;;;5059593;27;88034;-62
2023/01/20 00:59:59;;;;;;;1.53;1.20;;;20.10;39.20;;;;;;5041253;28;87135;-62
2023/01/20 01:02:27;;;;;;;1.00;1.00;;;20.10;39.20;;;;;;5041179;28;89181;-63
2023/01/20 01:04:55;;;;;;;1.47;0.90;;;20.10;39.20;;;;;;5040435;27;87018;-62
2023/01/20 01:07:23;;;;;;;1.00;1.00;;;20.10;39.20;;;;;;5040564;28;87106;-63
2023/01/20 01:09:51;;;;;;;1.17;1.07;;;20.10;39.20;;;;;;5040669;28;87071;-63
2023/01/20 01:12:20;;;;;;;1.63;1.37;;;20.10;39.20;;;;;;5044701;27;89177;-62
2023/01/20 01:14:48;;;;;;;1.63;1.20;;;20.10;39.20;;;;;;5037241;27;87773;-62
2023/01/20 01:17:18;;;;;;;1.57;1.33;;;20.00;39.20;;;;;;5040553;27;86911;-63
2023/01/20 01:19:46;;;;;;;0.70;0.70;;;20.00;39.20;;;;;;5041173;28;87075;-63
2023/01/20 01:22:14;;;;;;;1.30;1.17;;;20.00;39.20;;;;;;5040290;28;90109;-63
2023/01/20 01:24:43;;;;;;;3.00;1.43;;;20.00;39.20;;;;;;5039693;27;88873;-62
2023/01/20 01:27:11;;;;;;;1.73;0.90;;;20.00;39.20;;;;;;5040482;28;87181;-62
2023/01/20 01:29:39;;;;;;;0.80;0.80;;;20.00;39.20;;;;;;5039784;27;87425;-62
2023/01/20 01:32:07;;;;;;;1.03;0.93;;;19.90;39.10;;;;;;5041675;27;88030;-63
2023/01/20 01:34:36;;;;;;;1.73;1.47;;;19.90;39.10;;;;;;5047226;27;87479;-63
2023/01/20 01:37:04;;;;;;;1.90;0.83;;;19.90;39.10;;;;;;5036603;27;87353;-62
2023/01/20 01:39:32;;;;;;;1.20;0.70;;;19.90;39.10;;;;;;5040896;27;86719;-63
2023/01/20 01:42:00;;;;;;;3.20;1.40;;;19.90;39.80;;;;;;5046046;27;87215;-62
2023/01/20 01:44:28;;;;;;;1.23;0.70;;;19.90;39.10;;;;;;5049337;27;87872;-62
2023/01/20 01:46:56;;;;;;;1.80;1.23;;;19.80;39.10;;;;;;5041886;27;87982;-63
2023/01/20 01:49:26;;;;;;;0.87;0.87;;;19.80;39.00;;;;;;5047443;27;87173;-62
2023/01/20 01:51:58;;;;;;;1.90;1.27;;;19.80;39.10;;;;;;5039697;27;88046;-62
2023/01/20 01:54:27;;;;;;;1.13;0.90;;;19.80;39.10;;;;;;5026621;28;87577;-61
2023/01/20 01:56:55;;;;;;;2.20;1.23;;;19.80;39.70;;;;;;5048361;27;88432;-62
2023/01/20 01:59:23;;;;;;;0.87;0.70;;;19.80;39.10;;;;;;5039777;27;87184;-62
2023/01/20 02:01:52;;;;;;;1.03;1.03;;;19.80;39.10;;;;;;5045625;27;89113;-62
2023/01/20 02:04:22;;;;;;;1.93;1.23;;;19.80;39.20;;;;;;5058723;27;87954;-62
2023/01/20 02:06:51;;;;;;;0.80;0.80;;;19.80;39.20;;;;;;5053687;27;87135;-62
2023/01/20 02:09:20;;;;;;;1.30;1.20;;;19.80;39.20;;;;;;5040031;27;87065;-63
2023/01/20 02:11:49;;;;;;;1.57;1.20;;;19.70;39.10;;;;;;5052469;27;90095;-62
2023/01/20 02:14:17;;;;;;;2.17;1.13;;;19.70;39.10;;;;;;5044738;27;88867;-62
2023/01/20 02:16:51;;;;;;;2.80;1.40;;;19.70;39.10;;;;;;5059178;27;87132;-62
2023/01/20 02:20:04;;;;;;;3.53;1.10;;;19.70;39.10;;;;;;5040055;27;87088;-62
2023/01/20 02:22:36;;;;;;;2.87;1.00;;;19.70;39.20;;;;;;4969897;28;87466;-62
2023/01/20 02:25:15;;;;;;;1.10;1.00;;;19.70;39.20;;;;;;4976458;28;87752;-62
2023/01/20 02:28:04;;;;;;;2.17;1.67;;;19.70;39.20;;;;;;5013570;27;87238;-63
2023/01/20 02:30:40;;;;;;;2.13;1.27;;;19.60;39.10;;;;;;5042741;27;86292;-62
2023/01/20 02:33:10;;;;;;;1.60;0.80;;;19.70;39.20;;;;;;5037737;27;88392;-62
2023/01/20 02:35:40;;;;;;;1.83;0.90;;;19.60;39.10;;;;;;5063879;27;87935;-63
2023/01/20 02:38:13;;;;;;;1.20;0.80;;;19.60;39.10;;;;;;5052814;27;88028;-63
2023/01/20 02:40:44;;;;;;;1.40;0.87;;;19.60;39.10;;;;;;5056404;27;87055;-62
2023/01/20 02:43:17;;;;;;;2.13;1.10;;;19.60;39.10;;;;;;5049876;27;89376;-64
2023/01/20 02:45:47;;;;;;;1.20;0.93;;;19.60;39.10;;;;;;5040101;27;87925;-62
2023/01/20 02:48:20;;;;;;;0.67;0.67;;;19.60;39.10;;;;;;5045696;27;87068;-63
2023/01/20 02:50:52;;;;;;;0.87;0.77;;;19.60;39.10;;;;;;5055021;27;87074;-62
2023/01/20 02:53:20;;;;;;;0.77;0.70;;;19.70;39.10;;;;;;5052454;27;88277;-63
2023/01/20 02:55:48;;;;;;;1.53;0.90;;;19.80;39.20;;;;;;5047979;27;88840;-62
2023/01/20 02:58:19;;;;;;;1.27;1.13;;;19.90;39.10;;;;;;5060341;27;87134;-63
2023/01/20 03:00:49;;;;;;;1.00;0.90;;;20.00;39.00;;;;;;5041355;27;87152;-61
2023/01/20 03:03:21;;;;;;;2.03;1.40;;;20.20;39.10;;;;;;5052307;27;89008;-62
2023/01/20 03:05:52;;;;;;;1.50;1.27;;;20.20;38.90;;;;;;5041922;27;90020;-63
2023/01/20 03:08:20;;;;;;;2.00;1.17;;;20.30;38.90;;;;;;5043917;27;87058;-62
2023/01/20 03:10:48;;;;;;;7.17;1.23;;;20.40;38.80;;;;;;5041232;27;88616;-62
2023/01/20 03:13:18;;;;;;;1.00;0.90;;;20.40;38.80;;;;;;5042293;27;88235;-62
2023/01/20 03:15:52;;;;;;;2.17;1.20;;;20.40;38.80;;;;;;5047971;27;87968;-62
2023/01/20 03:18:21;;;;;;;1.37;1.17;;;20.40;38.80;;;;;;5053234;27;87922;-62
2023/01/20 03:20:49;;;;;;;2.07;1.20;;;20.40;38.70;;;;;;5057692;27;86584;-62
2023/01/20 03:23:17;;;;;;;2.30;0.90;;;20.40;38.70;;;;;;5048312;27;89177;-62
2023/01/20 03:25:45;;;;;;;1.37;1.23;;;20.40;38.70;;;;;;5043547;27;88617;-62
2023/01/20 03:28:13;;;;;;;0.60;0.60;;;20.40;38.70;;;;;;5045090;27;88011;-62
2023/01/20 03:30:41;;;;;;;1.50;0.90;;;20.30;38.60;;;;;;5042174;27;87687;-62
2023/01/20 03:33:09;;;;;;;1.67;1.43;;;20.30;38.50;;;;;;5039464;27;88243;-62
2023/01/20 03:35:40;;;;;;;0.90;0.90;;;20.30;38.60;;;;;;5036039;27;88851;-61
2023/01/20 03:38:08;;;;;;;2.17;1.33;;;20.20;38.50;;;;;;5040266;27;87199;-62
2023/01/20 03:40:38;;;;;;;0.73;0.70;;;20.20;38.60;;;;;;5041801;27;87092;-62
2023/01/20 03:43:09;;;;;;;1.37;1.13;;;20.10;38.50;;;;;;5042335;27;88251;-62
2023/01/20 03:45:40;;;;;;;2.20;1.27;;;20.10;38.50;;;;;;5050030;27;88965;-62
2023/01/20 03:48:11;;;;;;;1.90;1.00;;;20.10;38.60;;;;;;5054845;27;86980;-62
2023/01/20 03:50:42;;;;;;;1.23;0.83;;;20.10;38.60;;;;;;5053954;27;87123;-62
2023/01/20 03:53:17;;;;;;;1.83;1.17;;;20.10;38.60;;;;;;5040769;27;89075;-62
2023/01/20 03:55:47;;;;;;;1.10;0.90;;;20.00;38.60;;;;;;5047125;27;91810;-56
2023/01/20 03:58:17;;;;;;;1.43;0.90;;;20.00;38.70;;;;;;5043573;27;88283;-56
2023/01/20 04:00:45;;;;;;;1.50;0.90;;;19.90;38.70;;;;;;5046049;27;88248;-54
2023/01/20 04:03:16;;;;;;;1.37;0.80;;;20.00;38.80;;;;;;5042186;27;88388;-57
2023/01/20 04:05:45;;;;;;;0.70;0.70;;;20.00;38.80;;;;;;5041698;27;87880;-55
2023/01/20 04:08:14;;;;;;;1.10;0.90;;;20.10;39.00;;;;;;5042183;27;87009;-56
2023/01/20 04:10:43;;;;;;;4.17;0.90;;;20.20;39.00;;;;;;5042246;27;86286;-55
2023/01/20 04:13:10;;;;;;;8.63;2.23;;;20.30;39.00;;;;;;5041745;27;88836;-55
2023/01/20 04:15:39;;;;;;;1.03;0.80;;;20.40;39.10;;;;;;5039918;27;87810;-55
2023/01/20 04:18:12;;;;;;;2.33;1.10;;;20.60;39.20;;;;;;5044757;27;87968;-55
2023/01/20 04:20:40;;;;;;;0.97;0.93;;;20.80;39.20;;;;;;5043213;27;87031;-56
2023/01/20 04:23:12;;;;;;;0.90;0.80;;;21.10;39.30;;;;;;5038818;28;88262;-56
2023/01/20 04:25:40;;;;;;;3.80;1.00;;;21.30;39.20;;;;;;5040430;27;87920;-56
2023/01/20 04:28:08;;;;;;;1.93;1.27;;;21.60;39.30;;;;;;5041797;27;87066;-56
2023/01/20 04:30:36;;;;;;;1.43;0.80;;;21.80;39.20;;;;;;5041995;27;87129;-55
2023/01/20 04:33:04;;;;;;;2.60;1.10;;;22.10;39.20;;;;;;5044071;27;87797;-56
2023/01/20 04:35:32;;;;;;;3.40;1.30;;;22.30;39.20;;;;;;5044803;27;87921;-56
2023/01/20 04:38:00;;;;;;;3.50;1.17;;;22.50;39.10;;;;;;5042718;27;87671;-59
2023/01/20 04:40:29;;;;;;;0.63;0.63;;;22.80;39.20;;;;;;5046354;27;87069;-56
2023/01/20 04:42:57;;;;;;;2.13;1.20;;;23.00;39.20;;;;;;5040175;28;90284;-56
2023/01/20 04:45:25;;;;;;;3.73;0.70;;;23.20;39.20;;;;;;5026606;28;88701;-56
2023/01/20 04:47:53;;;;;;;2.13;1.20;;;23.30;39.20;;;;;;5035019;28;87180;-55
2023/01/20 04:50:21;;;;;;;1.30;1.00;;;23.50;39.20;;;;;;5040469;28;87159;-56
2023/01/20 04:52:49;;;;;;;2.30;1.23;;;23.50;39.10;;;;;;5040055;27;89272;-56
2023/01/20 04:55:18;;;;;;;1.10;0.80;;;23.70;39.30;;;;;;5044705;27;88085;-55
2023/01/20 04:57:48;;;;;;;2.33;1.00;;;23.60;39.20;;;;;;5041284;27;87873;-55
2023/01/20 05:00:19;;;;;;;3.63;0.90;;;23.60;39.30;;;;;;5038726;27;86406;-55
2023/01/20 05:02:47;;;;;;;1.70;0.70;;;23.60;39.40;;;;;;5035517;27;89256;-55
2023/01/20 05:05:15;;;;;;;1.27;0.90;;;23.70;39.50;;;;;;5045732;27;88268;-57
2023/01/20 05:07:44;;;;;;;2.23;1.23;;;23.70;39.50;;;;;;5049908;27;88838;-55
2023/01/20 05:10:12;;;;;;;5.57;0.93;;;23.70;39.50;;;;;;5041606;27;86993;-54
2023/01/20 05:12:40;;;;;;;3.77;1.20;;;23.80;39.50;;;;;;5039740;27;89756;-55
2023/01/20 05:15:10;;;;;;;2.53;0.97;;;24.00;40.30;;;;;;5039956;27;88008;-55
2023/01/20 05:17:38;;;;;;;2.30;1.23;;;24.10;39.50;;;;;;5040682;27;88097;-55
2023/01/20 05:20:07;;;;;;;1.03;0.83;;;24.30;39.50;;;;;;5045725;27;87398;-54
2023/01/20 05:22:35;;;;;;;1.70;0.80;;;24.40;39.50;;;;;;5051115;27;88002;-54
2023/01/20 05:25:03;;;;;;;1.27;0.77;;;24.70;39.60;;;;;;5047178;27;88018;-55
2023/01/20 05:27:33;;;;;;;1.47;0.90;;;24.50;39.40;;;;;;5042659;27;87054;-54
2023/01/20 05:30:02;;;;;;;1.07;0.97;;;24.50;39.40;;;;;;5042715;27;88063;-54
2023/01/20 05:32:31;;;;;;;1.80;1.00;;;24.50;39.40;;;;;;5039147;27;89655;-54
2023/01/20 05:34:59;;;;;;;2.60;1.03;;;24.40;39.50;;;;;;5044699;27;89823;-54
2023/01/20 05:37:27;;;;;;;2.80;1.17;;;24.40;39.60;;;;;;5044941;27;87112;-54
2023/01/20 05:39:55;;;;;;;2.10;1.27;;;24.30;39.60;;;;;;5043170;27;87056;-55
2023/01/20 05:42:23;;;;;;;1.83;1.17;;;24.20;39.60;;;;;;5045933;27;88813;-55
2023/01/20 05:44:51;;;;;;;0.97;0.87;;;24.10;39.60;;;;;;5028615;27;87807;-54
2023/01/20 05:47:19;;;;;;;3.13;1.43;;;24.00;39.70;;;;;;5047584;27;87330;-54
2023/01/20 05:49:48;;;;;;;2.17;1.30;;;23.90;39.70;;;;;;5046836;27;86324;-54
2023/01/20 05:52:16;;;;;;;5.20;1.50;;;23.80;39.70;;;;;;5043064;27;88968;-55
2023/01/20 05:54:44;;;;;;;2.60;1.20;;;23.70;39.80;;;;;;5043010;27;88841;-54
2023/01/20 05:57:16;;;;;;;1.43;1.33;;;23.60;39.80;;;;;;5044403;27;87991;-54
2023/01/20 05:59:46;;;;;;;5.87;0.90;;;23.50;39.90;;;;;;5046924;27;87035;-54
2023/01/20 06:02:17;;;;;;;1.97;1.17;;;23.50;40.00;;;;;;5032520;27;88032;-54
2023/01/20 06:04:45;;;;;;;1.33;1.23;;;23.30;39.90;;;;;;5036482;27;88129;-59
2023/01/20 06:07:15;;;;;;;1.50;1.40;;;23.30;40.00;;;;;;5056962;27;87037;-56
2023/01/20 06:09:43;;;;;;;2.83;1.23;;;23.20;40.70;;;;;;5042943;27;87257;-56
2023/01/20 06:12:11;;;;;;;2.93;1.83;;;23.10;40.20;;;;;;5049666;27;88312;-62
2023/01/20 06:14:39;;;;;;;2.00;1.70;;;23.10;40.40;;;;;;5050857;27;87823;-63
2023/01/20 06:17:07;;;;;;;2.67;1.60;;;23.00;40.40;;;;;;5046468;27;87144;-63
2023/01/20 06:19:35;;;;;;;1.93;1.43;;;22.90;40.50;;;;;;5045423;27;86987;-62
2023/01/20 06:22:03;;;;;;;2.40;2.20;;;22.80;40.50;;;;;;5048579;27;88898;-62
2023/01/20 06:24:32;;;;;;;2.93;1.57;;;22.70;40.50;;;;;;5043491;27;88733;-62
2023/01/20 06:27:00;;;;;;;1.17;1.07;;;22.70;40.60;;;;;;5056838;27;87174;-62
2023/01/20 06:29:28;;;;;;;4.73;1.40;;;22.60;40.50;;;;;;5053164;27;87025;-62
2023/01/20 06:31:57;;;;;;;2.27;1.33;;;22.60;40.50;;;;;;5041647;27;88699;-62
2023/01/20 06:34:25;;;;;;;1.47;1.23;;;22.50;40.50;;;;;;5052632;27;87768;-59
2023/01/20 06:36:53;;;;;;;4.17;2.17;;;22.40;40.40;;;;;;5050429;27;87159;-59
2023/01/20 06:39:21;;;;;;;2.60;1.40;;;22.40;40.50;;;;;;5045274;27;86518;-60
2023/01/20 06:41:50;;;;;;;1.83;1.03;;;22.30;40.60;;;;;;5055765;27;87326;-59
2023/01/20 06:44:18;;;;;;;2.20;1.10;;;22.30;40.70;;;;;;5042124;27;87923;-60
2023/01/20 06:46:46;;;;;;;1.50;1.33;;;22.30;40.80;;;;;;5049391;27;88021;-60
2023/01/20 06:49:15;;;;;;;1.47;1.33;;;22.30;40.80;;;;;;5045410;27;87027;-59
2023/01/20 06:51:43;;;;;;;2.50;1.27;;;22.30;40.90;;;;;;5044224;27;88263;-59
2023/01/20 06:54:11;;;;;;;3.33;1.53;;;22.30;40.90;;;;;;5042182;27;87957;-61
2023/01/20 06:56:39;;;;;;;1.73;1.40;;;22.20;40.90;;;;;;5039648;28;87081;-60
2023/01/20 06:59:09;;;;;;;2.47;1.63;;;22.20;41.00;;;;;;5040288;27;87080;-60
2023/01/20 07:01:37;;;;;;;1.47;1.27;;;22.20;41.00;;;;;;5039309;27;88223;-60
2023/01/20 07:04:07;;;;;;;2.47;1.40;;;22.20;41.00;;;;;;5040713;27;87806;-59
2023/01/20 07:06:37;;;;;;;1.07;1.00;;;22.20;41.00;;;;;;5053433;27;86974;-60
2023/01/20 07:09:05;;;;;;;2.10;1.20;;;22.10;40.90;;;;;;5044851;27;87740;-59
2023/01/20 07:11:34;;;;;;;1.37;1.27;;;22.10;40.90;;;;;;5043392;27;89144;-60
2023/01/20 07:14:02;;;;;;;3.87;1.73;;;22.10;40.90;;;;;;5058960;27;88495;-60
2023/01/20 07:16:31;;;;;;;4.50;2.00;;;22.10;40.90;;;;;;5050565;27;87135;-60
2023/01/20 07:18:59;;;;;;;2.90;2.20;;;22.00;40.80;;;;;;5042873;27;87082;-60
2023/01/20 07:21:27;;;;;;;1.30;1.20;;;22.00;40.80;;;;;;5055209;27;88088;-59
2023/01/20 07:23:55;;;;;;;2.47;1.57;;;22.00;40.80;;;;;;5045375;27;88280;-58
2023/01/20 07:26:25;;;;;;;1.97;1.23;;;22.00;40.80;;;;;;5052107;27;87228;-58
2023/01/20 07:28:53;;;;;;;2.63;1.47;;;21.90;40.80;;;;;;5043808;27;86259;-55
2023/01/20 07:31:22;;;;;;;2.03;1.13;;;21.90;40.80;;;;;;5045273;27;89313;-55
2023/01/20 07:33:51;;;;;;;2.37;1.57;;;21.90;40.80;;;;;;5047250;27;87692;-60
2023/01/20 07:36:19;;;;;;;1.93;1.53;;;21.80;40.80;;;;;;5054300;27;88160;-59
2023/01/20 07:38:48;;;;;;;1.90;1.73;;;21.80;40.90;;;;;;5051988;27;87344;-59
2023/01/20 07:41:18;;;;;;;4.17;2.10;;;21.80;41.00;;;;;;5047718;27;88060;-59
2023/01/20 07:43:47;;;;;;;3.93;1.97;;;21.80;41.00;;;;;;5042695;27;87749;-57
2023/01/20 07:46:15;;;;;;;2.30;1.03;;;21.70;40.90;;;;;;5043540;27;87370;-57
2023/01/20 07:48:43;;;;;;;3.03;1.73;;;21.70;41.00;;;;;;5061839;27;87099;-57
2023/01/20 07:51:13;;;;;;;1.63;1.50;;;21.70;41.00;;;;;;5049994;27;88204;-57
2023/01/20 07:53:45;;;;;;;8.90;1.93;;;21.60;41.00;;;;;;5057060;27;88876;-57
2023/01/20 07:56:14;;;;;;;2.83;1.33;;;21.60;40.90;;;;;;5034142;27;87356;-56
2023/01/20 07:58:44;;;;;;;3.83;1.90;;;21.60;40.90;;;;;;5043276;27;87198;-56
2023/01/20 08:01:12;;;;;;;2.33;1.60;;;21.60;40.90;;;;;;5057570;27;90110;-56
2023/01/20 08:03:41;;;;;;;1.70;1.43;;;21.50;40.80;;;;;;5054489;27;88679;-57
2023/01/20 08:06:10;;;;;;;1.77;1.40;;;21.50;40.80;;;;;;5048566;27;87184;-56
2023/01/20 08:08:40;;;;;;;1.50;1.40;;;21.50;41.40;;;;;;5061725;27;87093;-56
2023/01/20 08:11:08;;;;;;;3.80;1.27;;;21.40;40.80;;;;;;5045595;27;88021;-56
2023/01/20 08:13:36;;;;;;;2.20;1.00;;;21.40;41.30;;;;;;5021703;28;87805;-56
2023/01/20 08:16:05;;;;;;;1.50;1.30;;;21.40;40.60;;;;;;5044794;27;88261;-57
2023/01/20 08:18:34;;;;;;;2.37;1.63;;;21.30;40.50;;;;;;5042883;27;86318;-56
2023/01/20 08:21:05;;;;;;;1.40;1.23;;;21.30;40.50;;;;;;5060263;27;89192;-57
2023/01/20 08:23:33;;;;;;;1.53;1.37;;;21.30;40.50;;;;;;5060500;27;87426;-56
2023/01/20 08:26:04;;;;;;;2.90;1.63;;;21.30;40.50;;;;;;5062107;27;87975;-57
2023/01/20 08:28:32;;;;;;;1.57;1.03;;;21.20;40.40;;;;;;5062628;27;87081;-56
2023/01/20 08:31:05;;;;;;;1.83;1.27;;;21.20;40.30;;;;;;5062064;27;88275;-57
2023/01/20 08:33:33;;;;;;;1.30;1.10;;;21.20;40.30;;;;;;5062359;27;88868;-57
2023/01/20 08:36:06;;;;;;;2.77;1.73;;;21.10;40.30;;;;;;5062939;27;86998;-57
2023/01/20 08:38:34;;;;;;;2.03;1.50;;;21.10;40.30;;;;;;5063383;27;86933;-56
2023/01/20 08:41:06;;;;;;;1.23;0.90;;;21.10;40.30;;;;;;5063483;27;89155;-56
2023/01/20 08:43:34;;;;;;;1.73;1.13;;;21.10;40.40;;;;;;5062991;27;88864;-56
2023/01/20 08:46:02;;;;;;;2.50;1.57;;;21.00;40.30;;;;;;5062701;27;87030;-57
2023/01/20 08:48:31;;;;;;;1.53;1.43;;;21.00;40.30;;;;;;5062922;27;87027;-57
2023/01/20 08:50:59;;;;;;;1.70;1.50;;;21.00;40.30;;;;;;5062352;27;89918;-56
2023/01/20 08:53:27;;;;;;;1.43;1.33;;;21.00;40.30;;;;;;5062355;27;88652;-58
2023/01/20 08:55:56;;;;;;;7.43;1.20;;;20.90;40.20;;;;;;5062356;27;86920;-56
2023/01/20 08:58:26;;;;;;;2.33;1.20;;;20.90;40.30;;;;;;5062916;27;87073;-56
2023/01/20 09:00:54;;;;;;;1.83;1.03;;;20.90;40.30;;;;;;5062537;27;88070;-56
2023/01/20 09:03:22;;;;;;;2.07;1.37;;;20.90;40.30;;;;;;5062976;27;87602;-56
2023/01/20 09:05:50;;;;;;;1.83;0.90;;;20.90;40.30;;;;;;5062992;27;87089;-56
2023/01/20 09:08:19;;;;;;;3.17;1.30;;;20.80;40.20;;;;;;5063023;27;86252;-56
2023/01/20 09:10:47;;;;;;;1.77;1.10;;;20.80;40.30;;;;;;5062799;27;89165;-56
2023/01/20 09:13:15;;;;;;;1.30;1.00;;;20.80;40.30;;;;;;5062527;27;87906;-56
2023/01/20 09:15:50;;;;;;;1.67;1.20;;;20.80;40.30;;;;;;5061991;27;87905;-56
2023/01/20 09:18:18;;;;;;;1.67;1.30;;;20.80;41.00;;;;;;5062367;27;86921;-57
2023/01/20 09:20:46;;;;;;;0.87;0.87;;;20.70;40.20;;;;;;5062508;27;88192;-56
2023/01/20 09:23:14;;;;;;;1.10;0.73;;;20.70;40.20;;;;;;5062378;27;87822;-56
2023/01/20 09:25:42;;;;;;;1.53;1.17;;;20.70;40.20;;;;;;5062636;27;86929;-56
2023/01/20 09:28:11;;;;;;;1.23;1.10;;;20.70;40.20;;;;;;5062182;27;86944;-56
2023/01/20 09:30:39;;;;;;;1.00;0.90;;;20.70;40.20;;;;;;5061827;27;89194;-57
2023/01/20 09:33:09;;;;;;;2.07;1.20;;;20.70;40.30;;;;;;5062952;27;87951;-56
2023/01/20 09:35:37;;;;;;;1.43;0.93;;;20.60;40.20;;;;;;5062900;27;87086;-56
2023/01/20 09:43:53;;;;;;;1.57;0.93;;;20.60;40.30;;;;;;5062069;27;88741;-56
2023/01/20 09:46:28;;;;;;;1.60;1.17;;;20.60;40.30;;;;;;5061703;27;86988;-56
2023/01/20 09:54:38;;;;;;;0.90;0.90;;;20.50;40.20;;;;;;5061319;27;88933;-56
2023/01/20 09:57:06;;;;;;;1.00;0.90;;;20.50;40.20;;;;;;5062208;27;87007;-56
2023/01/20 09:59:36;;;;;;;1.20;1.10;;;20.50;40.20;;;;;;5062737;27;86252;-56
2023/01/20 10:02:05;;;;;;;1.10;0.80;;;20.50;40.20;;;;;;5061680;27;89018;-58
2023/01/20 10:04:36;;;;;;;0.50;0.50;;;20.50;40.90;;;;;;5061822;27;87803;-56
2023/01/20 10:07:07;;;;;;;1.23;1.03;;;20.40;40.20;;;;;;5061370;27;88056;-56
2023/01/20 10:09:37;;;;;;;2.00;0.80;;;20.40;40.20;;;;;;5061499;27;87026;-56
2023/01/20 10:12:07;;;;;;;1.33;1.23;;;20.50;40.20;;;;;;5061520;27;88089;-56
2023/01/20 10:14:37;;;;;;;2.00;1.13;;;20.40;40.20;;;;;;5061517;27;87933;-56
2023/01/20 10:17:07;;;;;;;1.43;1.33;;;20.40;40.20;;;;;;5062123;27;87054;-56
2023/01/20 10:19:38;;;;;;;1.33;1.20;;;20.40;40.20;;;;;;5062048;27;86990;-56
2023/01/20 10:22:09;;;;;;;0.70;0.70;;;20.40;40.20;;;;;;5061668;27;88258;-56
2023/01/20 10:24:40;;;;;;;0.63;0.63;;;20.40;40.20;;;;;;5061401;27;88936;-56
2023/01/20 10:27:08;;;;;;;1.33;1.23;;;20.30;40.10;;;;;;5061604;27;86990;-56
2023/01/20 10:29:37;;;;;;;0.83;0.77;;;20.40;40.20;;;;;;5061801;27;87074;-56
2023/01/20 10:32:08;;;;;;;0.77;0.77;;;20.30;40.10;;;;;;5061028;27;89243;-56
2023/01/20 10:34:40;;;;;;;1.13;0.90;;;20.30;40.10;;;;;;5061585;27;89822;-56
2023/01/20 10:37:10;;;;;;;2.50;1.00;;;20.30;40.10;;;;;;5061337;27;87028;-56
2023/01/20 10:39:42;;;;;;;0.93;0.80;;;20.30;40.10;;;;;;5061609;27;86792;-58
2023/01/20 10:42:13;;;;;;;1.10;0.97;;;20.30;40.10;;;;;;5061097;27;88237;-56
2023/01/20 10:44:41;;;;;;;0.80;0.70;;;20.30;40.20;;;;;;5061200;27;87846;-56
2023/01/20 10:47:16;;;;;;;1.83;0.90;;;20.30;40.10;;;;;;5061336;27;87102;-56
2023/01/20 10:50:17;;;;;;;1.03;0.97;;;20.20;40.10;;;;;;5063359;27;86392;-58
2023/01/20 10:52:57;;;;;;;1.10;1.03;;;20.20;40.10;;;;;;5051678;27;89073;-58
2023/01/20 10:55:29;;;;;;;1.00;0.90;;;20.20;40.00;;;;;;5064113;27;87777;-57
2023/01/20 10:57:59;;;;;;;0.87;0.83;;;20.20;40.30;;;;;;5064081;27;88002;-56
2023/01/20 11:00:28;;;;;;;1.07;1.00;;;20.20;40.00;;;;;;5064199;27;87014;-58
2023/01/20 11:02:57;;;;;;;0.83;0.83;;;20.20;40.00;;;;;;5064977;27;88184;-57
2023/01/20 11:05:27;;;;;;;1.37;1.10;;;20.10;39.90;;;;;;5064686;27;86710;-58
2023/01/20 11:07:57;;;;;;;0.50;0.50;;;20.20;40.00;;;;;;5065092;27;87079;-56
2023/01/20 11:10:28;;;;;;;1.10;0.83;;;20.10;39.90;;;;;;5065324;27;87067;-56
2023/01/20 11:12:58;;;;;;;0.60;0.60;;;20.10;39.90;;;;;;5064193;27;89379;-56
2023/01/20 11:15:28;;;;;;;0.70;0.70;;;20.10;39.90;;;;;;5064661;27;88814;-56
2023/01/20 11:18:19;;;;;;;1.70;0.80;;;20.10;40.60;;;;;;5064564;27;86952;-56
2023/01/20 11:20:48;;;;;;;1.33;0.73;;;20.10;39.90;;;;;;5064421;27;87082;-56
2023/01/20 11:23:21;;;;;;;1.23;0.73;;;20.10;39.90;;;;;;5063386;27;89028;-56
2023/01/20 11:25:56;;;;;;;0.70;0.70;;;20.00;39.80;;;;;;5063854;27;90073;-56
2023/01/20 11:28:24;;;;;;;0.67;0.67;;;20.00;40.50;;;;;;5064401;27;87015;-57
2023/01/20 11:30:52;;;;;;;1.17;1.00;;;20.00;39.80;;;;;;5064255;27;86938;-56
2023/01/20 11:33:22;;;;;;;0.73;0.73;;;20.00;39.80;;;;;;5064380;27;88226;-57
2023/01/20 11:36:00;;;;;;;1.50;0.80;;;20.00;39.80;;;;;;5064079;27;87773;-57
2023/01/20 11:38:30;;;;;;;1.00;1.00;;;19.90;39.80;;;;;;5064439;27;86922;-57
2023/01/20 11:40:58;;;;;;;0.90;0.90;;;19.90;39.80;;;;;;5064721;27;86300;-56
2023/01/20 11:43:30;;;;;;;0.87;0.80;;;19.90;40.40;;;;;;5063734;27;88383;-57
2023/01/20 11:46:15;;;;;;;1.33;1.00;;;19.90;39.80;;;;;;5064068;27;89038;-56
2023/01/20 11:48:43;;;;;;;0.83;0.83;;;19.90;39.80;;;;;;5063519;27;87946;-56
2023/01/20 11:51:19;;;;;;;0.90;0.87;;;19.90;39.80;;;;;;5064195;27;87045;-56
2023/01/20 11:53:48;;;;;;;1.30;0.80;;;19.90;39.80;;;;;;5064003;27;88103;-56
2023/01/20 11:56:19;;;;;;;0.97;0.90;;;19.90;39.80;;;;;;5064180;27;87985;-56
2023/01/20 11:58:54;;;;;;;1.47;0.90;;;19.90;39.80;;;;;;5063894;27;86913;-57
2023/01/20 12:01:24;;;;;;;1.13;0.63;;;19.80;39.80;;;;;;5062674;27;86941;-57
2023/01/20 12:04:27;;;;;;;1.20;1.10;;;19.80;39.80;;;;;;5063970;27;89194;-56
2023/01/20 12:06:57;;;;;;;2.20;1.23;;;19.80;39.80;;;;;;5063725;27;86449;-56
2023/01/20 12:09:29;;;;;;;0.67;0.67;;;19.80;39.70;;;;;;5063896;27;86998;-56
2023/01/20 12:11:58;;;;;;;2.37;0.60;;;19.80;39.80;;;;;;5063718;27;86926;-57
2023/01/20 12:14:29;;;;;;;1.30;1.17;;;19.80;39.80;;;;;;5063236;27;89210;-57
2023/01/20 12:17:29;;;;;;;0.63;0.63;;;19.70;39.70;;;;;;5063747;27;87298;-57
2023/01/20 12:20:03;;;;;;;1.17;1.00;;;19.70;39.80;;;;;;5035901;27;87180;-57
2023/01/20 12:22:42;;;;;;;2.30;0.93;;;19.70;39.70;;;;;;5063308;27;87190;-56
2023/01/20 12:25:16;;;;;;;1.43;0.70;;;19.70;39.70;;;;;;5062685;27;88204;-56
2023/01/20 12:27:47;;;;;;;0.63;0.63;;;19.70;39.70;;;;;;5063141;27;87945;-58
2023/01/20 12:30:42;;;;;;;1.10;1.00;;;19.70;39.70;;;;;;5063338;27;87106;-56
2023/01/20 12:33:19;;;;;;;1.23;1.13;;;19.60;39.70;;;;;;5061439;27;86341;-57
2023/01/20 12:36:18;;;;;;;1.90;1.33;;;19.70;39.70;;;;;;5063413;27;88100;-57
2023/01/20 12:38:57;;;;;;;1.47;0.63;;;19.60;39.70;;;;;;5063186;27;87806;-57
2023/01/20 12:41:34;;;;;;;1.40;1.27;;;19.60;39.70;;;;;;5062925;27;87964;-56
2023/01/20 12:44:04;;;;;;;1.13;0.83;;;19.60;39.70;;;;;;5063557;27;86954;-57
2023/01/20 12:46:35;;;;;;;0.77;0.77;;;19.60;39.70;;;;;;5062709;27;86886;-56
2023/01/20 12:49:17;;;;;;;0.70;0.70;;;19.60;39.70;;;;;;5062544;27;89007;-56
2023/01/20 12:51:53;;;;;;;1.90;0.77;;;19.60;39.70;;;;;;5063042;27;86975;-56
2023/01/20 12:54:35;;;;;;;0.60;0.60;;;19.60;39.70;;;;;;5062860;27;87003;-58
2023/01/20 12:57:21;;;;;;;0.73;0.73;;;19.60;39.60;;;;;;5062720;27;88204;-56
2023/01/20 12:59:53;;;;;;;0.57;0.57;;;19.70;39.60;;;;;;5062421;27;87930;-56
2023/01/20 13:02:42;;;;;;;1.90;0.80;;;19.80;40.30;;;;;;5062376;27;86995;-57
2023/01/20 13:05:22;;;;;;;1.07;0.60;;;20.00;39.60;;;;;;5063321;27;87021;-57
2023/01/20 13:07:56;;;;;;;0.80;0.73;;;20.10;39.50;;;;;;5062000;27;90183;-57
2023/01/20 13:10:32;;;;;;;0.77;0.67;;;20.20;39.60;;;;;;5062697;27;88864;-57
2023/01/20 13:13:04;;;;;;;0.80;0.80;;;20.30;39.40;;;;;;5062932;27;86905;-57
2023/01/20 13:15:35;;;;;;;0.60;0.60;;;20.30;39.30;;;;;;5062820;27;87075;-56